East Leverett, Massachusetts
Current Conditions -  °F | °C
As of 10:52 AM on Friday 21 Nov 2014 (Local Time) from KORE Reporting Station
Scattered Clouds Scattered Clouds  
Wind Chill: 17°   Ceiling: Unl
Heat Index: 29°   Visibility: 10mi
Dew Point:   Wind: 17mph
Humidity: 43%   Direction: 310°NW
Pressure: 30.13"   Gusts: 25mph
Location:  42.4786°N, 72.4839°W
Report Text: KORE 211552Z AUTO 31015G22KT 10SM FEW043 SCT050 M02/M13 A3013 RMK AO2 SLP212 T10171128
Loading
Personal Weather Stations






























Interactive Weather Map New forecast layout! Learn more

10-Day Weather Forecast

Advertisements
Track Severe Weather on mobile